Time;durP1;ratioP1;P1;durP2;ratioP2;P2;SDS_P1;SDS_P2;PMS_P1;PMS_P2;Temp;Humidity;BMP_temperature;BMP_pressure;BME280_temperature;BME280_humidity;BME280_pressure;Samples;Min_cycle;Max_cycle;Signal;HPM_P1;HPM_P2
2023/08/04 00:01:22;;;;;;;8.45;7.55;;;640.10;2432.00;;;;;;5089170;28;20035;-64
2023/08/04 00:03:48;;;;;;;11.88;8.93;;;640.10;2432.00;;;;;;5089098;28;20115;-63
2023/08/04 00:06:13;;;;;;;9.40;8.27;;;640.00;2432.00;;;;;;5088965;28;20024;-63
2023/08/04 00:08:39;;;;;;;11.60;7.63;;;640.10;2432.00;;;;;;5089209;28;20042;-64
2023/08/04 00:11:05;;;;;;;12.77;7.80;;;640.00;2432.00;;;;;;5089226;28;20115;-63
2023/08/04 00:13:31;;;;;;;12.10;8.63;;;640.00;2432.00;;;;;;5089765;28;20366;-63
2023/08/04 00:16:10;;;;;;;10.20;7.60;;;640.00;2432.00;;;;;;5089474;28;20052;-63
2023/08/04 00:18:36;;;;;;;9.18;7.63;;;615.30;2432.00;;;;;;5089018;28;20028;-63
2023/08/04 00:21:03;;;;;;;8.90;7.85;;;615.30;2432.00;;;;;;5088714;28;20539;-63
2023/08/04 00:23:29;;;;;;;11.10;8.65;;;615.30;2432.00;;;;;;5089087;28;20146;-63
2023/08/04 00:25:55;;;;;;;8.68;7.45;;;615.30;2432.00;;;;;;5089006;28;20051;-63
2023/08/04 00:28:22;;;;;;;12.00;7.63;;;615.20;2432.00;;;;;;5089123;28;20024;-63
2023/08/04 00:30:48;;;;;;;10.80;7.03;;;615.20;2432.00;;;;;;5089765;28;20032;-64
2023/08/04 00:33:14;;;;;;;11.50;7.28;;;615.20;2432.00;;;;;;5090397;28;20107;-62
2023/08/04 00:35:40;;;;;;;10.40;7.63;;;615.20;2432.00;;;;;;5091216;28;20055;-64
2023/08/04 00:38:06;;;;;;;12.52;8.85;;;615.20;2432.00;;;;;;5089584;28;20432;-63
2023/08/04 00:40:32;;;;;;;9.43;8.02;;;615.10;2432.00;;;;;;5088994;28;20036;-65
2023/08/04 00:42:58;;;;;;;10.82;9.10;;;615.10;2432.00;;;;;;5089386;28;20093;-64
2023/08/04 00:45:26;;;;;;;10.63;8.00;;;615.00;2432.00;;;;;;5089179;28;20032;-64
2023/08/04 00:47:52;;;;;;;12.20;8.38;;;614.90;2432.00;;;;;;5088992;28;20073;-65
2023/08/04 00:50:19;;;;;;;14.43;9.05;;;614.80;2432.00;;;;;;5089029;28;20508;-63
2023/08/04 00:52:45;;;;;;;12.73;8.85;;;614.80;2432.00;;;;;;5089140;28;20028;-63
2023/08/04 00:55:13;;;;;;;12.35;8.15;;;614.80;2432.00;;;;;;5071946;28;20024;-64
2023/08/04 00:57:39;;;;;;;10.85;8.30;;;614.80;2432.00;;;;;;5077184;28;20027;-65
2023/08/04 01:00:06;;;;;;;11.50;8.65;;;614.80;2432.00;;;;;;5089113;28;20096;-63
2023/08/04 01:02:32;;;;;;;10.23;7.53;;;614.80;2432.00;;;;;;5088618;28;20024;-64
2023/08/04 01:04:59;;;;;;;12.20;7.97;;;614.70;2432.00;;;;;;5090009;28;20071;-63
2023/08/04 01:07:30;;;;;;;11.32;8.05;;;614.70;2432.00;;;;;;5092552;28;20043;-63
2023/08/04 01:10:03;;;;;;;9.60;8.18;;;614.70;2432.00;;;;;;5092440;28;20039;-64
2023/08/04 01:12:37;;;;;;;9.95;8.25;;;614.70;2432.00;;;;;;5079548;28;20029;-63
2023/08/04 01:15:04;;;;;;;10.43;7.28;;;614.60;2432.00;;;;;;5092416;28;20024;-63
2023/08/04 01:17:31;;;;;;;9.40;7.88;;;614.60;2432.00;;;;;;5092372;28;20024;-63
2023/08/04 01:19:58;;;;;;;10.00;8.45;;;614.70;2432.00;;;;;;5092215;28;20028;-62
2023/08/04 01:22:25;;;;;;;11.00;8.18;;;614.60;2432.00;;;;;;5093404;28;20024;-62
2023/08/04 01:24:52;;;;;;;9.68;8.68;;;614.60;2432.00;;;;;;5092858;28;20036;-62
2023/08/04 01:27:24;;;;;;;11.18;7.60;;;614.50;2432.00;;;;;;5092597;28;20016;-62
2023/08/04 01:29:50;;;;;;;9.48;7.85;;;614.40;2432.00;;;;;;5092363;28;20024;-62
2023/08/04 01:32:17;;;;;;;11.48;8.52;;;614.40;2432.00;;;;;;5092390;28;20104;-63
2023/08/04 01:34:47;;;;;;;11.30;7.63;;;614.40;2432.00;;;;;;5092172;28;20025;-63
2023/08/04 01:37:13;;;;;;;11.57;8.20;;;614.40;2432.00;;;;;;5092488;28;20028;-63
2023/08/04 01:39:39;;;;;;;9.90;7.45;;;614.40;2432.00;;;;;;5092426;28;20085;-63
2023/08/04 01:42:05;;;;;;;10.05;8.35;;;614.40;2432.00;;;;;;5083957;28;20518;-62
2023/08/04 01:44:30;;;;;;;8.25;7.35;;;589.70;2432.00;;;;;;5072220;28;20036;-62
2023/08/04 01:46:56;;;;;;;8.57;7.10;;;589.60;2432.00;;;;;;5089832;28;20031;-63
2023/08/04 01:49:22;;;;;;;8.48;7.07;;;589.50;2432.00;;;;;;5091626;28;20122;-65
2023/08/04 01:51:47;;;;;;;9.10;7.30;;;589.50;2432.00;;;;;;5091667;28;20230;-62
2023/08/04 01:54:13;;;;;;;8.45;6.93;;;589.50;2432.00;;;;;;5091558;28;20059;-63
2023/08/04 01:56:39;;;;;;;11.38;7.72;;;589.50;2432.00;;;;;;5091519;28;20028;-62
2023/08/04 01:59:04;;;;;;;10.80;8.02;;;589.50;2432.00;;;;;;5091324;28;20032;-62
2023/08/04 02:01:30;;;;;;;8.82;7.30;;;589.50;2432.00;;;;;;5091150;28;20058;-61
2023/08/04 02:03:56;;;;;;;10.70;8.30;;;589.60;2432.00;;;;;;5091433;28;20027;-61
2023/08/04 02:06:21;;;;;;;9.38;7.57;;;589.60;2432.00;;;;;;5091809;28;20121;-62
2023/08/04 02:08:47;;;;;;;13.55;8.15;;;589.60;2432.00;;;;;;5091471;28;20074;-62
2023/08/04 02:11:13;;;;;;;9.43;7.45;;;589.60;2432.00;;;;;;5090886;28;20035;-62
2023/08/04 02:13:38;;;;;;;9.43;7.97;;;589.70;2432.00;;;;;;5091513;28;20032;-62
2023/08/04 02:16:04;;;;;;;11.00;7.88;;;589.70;2432.00;;;;;;5090096;28;20501;-61
2023/08/04 02:18:30;;;;;;;10.13;7.72;;;589.70;2432.00;;;;;;5091025;28;20056;-62
2023/08/04 02:20:55;;;;;;;9.07;7.55;;;614.40;2432.00;;;;;;5091236;28;20034;-63
2023/08/04 02:23:21;;;;;;;9.55;7.72;;;614.40;2432.00;;;;;;5091031;28;20028;-62
2023/08/04 02:25:47;;;;;;;10.50;8.73;;;614.50;2432.00;;;;;;5090767;28;20025;-63
2023/08/04 02:28:12;;;;;;;10.43;7.72;;;614.50;2432.00;;;;;;5090748;28;20091;-63
2023/08/04 02:30:38;;;;;;;9.10;7.45;;;614.40;2432.00;;;;;;5091163;28;20036;-62
2023/08/04 02:33:03;;;;;;;9.48;7.45;;;614.50;2432.00;;;;;;5090704;28;20027;-62
2023/08/04 02:35:29;;;;;;;6.93;6.22;;;614.60;2432.00;;;;;;5090950;28;20023;-62
2023/08/04 02:37:55;;;;;;;12.50;8.23;;;614.60;2432.00;;;;;;5090820;28;20130;-61
2023/08/04 02:40:21;;;;;;;10.07;7.28;;;614.60;2432.00;;;;;;5090793;28;20058;-62
2023/08/04 02:42:47;;;;;;;13.80;7.60;;;614.60;2432.00;;;;;;5090472;28;20082;-62
2023/08/04 02:45:13;;;;;;;9.05;7.78;;;614.60;2432.00;;;;;;5090429;28;20028;-64
2023/08/04 02:47:38;;;;;;;11.35;8.02;;;614.60;2432.00;;;;;;5090579;28;20031;-63
2023/08/04 02:50:05;;;;;;;10.73;8.25;;;614.70;2432.00;;;;;;5090349;28;20026;-63
2023/08/04 02:52:31;;;;;;;10.98;7.80;;;614.70;2432.00;;;;;;5090395;28;20859;-64
2023/08/04 02:54:57;;;;;;;11.27;8.30;;;614.70;2432.00;;;;;;5090812;28;20027;-64
2023/08/04 02:57:22;;;;;;;16.00;7.53;;;614.70;2432.00;;;;;;5090100;28;20111;-63
2023/08/04 02:59:48;;;;;;;11.95;7.90;;;614.70;2432.00;;;;;;5090543;28;20032;-64
2023/08/04 03:02:14;;;;;;;12.60;8.07;;;614.70;2432.00;;;;;;5090208;28;20024;-64
2023/08/04 03:04:39;;;;;;;9.88;8.85;;;614.70;2432.00;;;;;;5090142;28;20035;-64
2023/08/04 03:07:05;;;;;;;8.68;7.68;;;614.70;2432.00;;;;;;5090114;28;20419;-64
2023/08/04 03:09:31;;;;;;;10.02;8.27;;;614.60;2432.00;;;;;;5090416;28;20047;-64
2023/08/04 03:11:57;;;;;;;9.68;8.20;;;614.60;2432.00;;;;;;5089868;28;20091;-64
2023/08/04 03:14:23;;;;;;;11.35;8.32;;;614.40;2432.00;;;;;;5089785;28;20024;-64
2023/08/04 03:16:50;;;;;;;10.43;7.63;;;614.40;2432.00;;;;;;5090014;28;20172;-62
2023/08/04 03:19:17;;;;;;;11.02;8.73;;;614.40;2432.00;;;;;;5089902;28;20101;-62
2023/08/04 03:21:43;;;;;;;11.32;8.75;;;589.70;2432.00;;;;;;5089286;28;20039;-64
2023/08/04 03:24:09;;;;;;;15.95;9.68;;;589.30;2432.00;;;;;;5089796;28;20165;-63
2023/08/04 03:26:35;;;;;;;11.82;8.80;;;589.30;2432.00;;;;;;5089395;28;20107;-63
2023/08/04 03:29:00;;;;;;;14.88;8.82;;;589.20;2432.00;;;;;;5089638;28;20039;-63
2023/08/04 03:31:26;;;;;;;13.95;9.93;;;589.10;2432.00;;;;;;5089895;28;20020;-63
2023/08/04 03:33:52;;;;;;;10.07;8.85;;;589.10;2432.00;;;;;;5089626;28;20454;-64
2023/08/04 03:36:18;;;;;;;12.38;9.63;;;589.20;2432.00;;;;;;5089617;28;20110;-62
2023/08/04 03:38:43;;;;;;;11.43;8.70;;;589.20;2432.00;;;;;;5089610;28;20036;-63
2023/08/04 03:41:09;;;;;;;10.68;9.43;;;589.20;2432.00;;;;;;5089350;28;20072;-62
2023/08/04 03:43:35;;;;;;;11.05;8.57;;;589.20;2432.00;;;;;;5089601;28;20480;-62
2023/08/04 03:46:00;;;;;;;14.45;8.73;;;589.20;2432.00;;;;;;5089714;28;20054;-63
2023/08/04 03:48:26;;;;;;;12.52;8.23;;;589.30;2432.00;;;;;;5089462;28;20031;-63
2023/08/04 03:50:52;;;;;;;12.02;8.60;;;589.30;2432.00;;;;;;5089178;28;20380;-63
2023/08/04 03:53:17;;;;;;;11.90;9.13;;;589.30;2432.00;;;;;;5089609;28;20026;-63
2023/08/04 03:55:43;;;;;;;11.27;8.75;;;589.30;2432.00;;;;;;5089170;28;20095;-63
2023/08/04 03:58:09;;;;;;;10.90;9.25;;;589.40;2432.00;;;;;;5089168;28;20020;-62
2023/08/04 04:00:34;;;;;;;14.52;9.80;;;589.40;2432.00;;;;;;5089203;28;20024;-62
2023/08/04 04:03:00;;;;;;;10.65;9.38;;;589.30;2432.00;;;;;;5089178;28;20023;-63
2023/08/04 04:05:26;;;;;;;10.10;8.52;;;589.40;2432.00;;;;;;5089495;28;20036;-63
2023/08/04 04:07:51;;;;;;;10.95;8.13;;;589.50;2432.00;;;;;;5089104;28;20494;-63
2023/08/04 04:10:17;;;;;;;12.85;8.57;;;589.50;2432.00;;;;;;5089438;28;20035;-61
2023/08/04 04:12:43;;;;;;;14.43;9.25;;;589.50;2432.00;;;;;;5089084;28;20423;-62
2023/08/04 04:15:09;;;;;;;11.40;8.20;;;589.70;2432.00;;;;;;5089296;28;20478;-63
2023/08/04 04:17:35;;;;;;;10.02;8.63;;;589.70;2432.00;;;;;;5089211;28;20073;-61
2023/08/04 04:20:01;;;;;;;13.75;9.10;;;614.40;2432.00;;;;;;5089077;28;20028;-64
2023/08/04 04:22:27;;;;;;;10.25;8.40;;;614.50;2432.00;;;;;;5088866;28;20024;-63
2023/08/04 04:24:53;;;;;;;9.93;8.55;;;614.50;2432.00;;;;;;5088934;28;20496;-63
2023/08/04 04:27:18;;;;;;;9.50;8.43;;;614.40;2432.00;;;;;;5089037;28;20024;-64
2023/08/04 04:29:45;;;;;;;12.57;8.23;;;614.60;2432.00;;;;;;5088963;28;20032;-62
2023/08/04 04:32:10;;;;;;;11.85;8.45;;;614.70;2432.00;;;;;;5089236;28;20038;-63
2023/08/04 04:34:36;;;;;;;9.48;8.00;;;614.70;2432.00;;;;;;5089187;28;20536;-63
2023/08/04 04:37:02;;;;;;;10.25;8.27;;;614.80;2432.00;;;;;;5089173;28;20538;-64
2023/08/04 04:39:27;;;;;;;8.95;7.72;;;614.90;2432.00;;;;;;5089517;28;20470;-63
2023/08/04 04:41:53;;;;;;;14.95;8.82;;;614.90;2432.00;;;;;;5092674;28;20044;-64
2023/08/04 04:44:19;;;;;;;9.30;7.68;;;615.00;2432.00;;;;;;5093232;28;20044;-62
2023/08/04 04:46:44;;;;;;;9.05;7.90;;;615.10;2432.00;;;;;;5093302;28;20042;-61
2023/08/04 04:49:10;;;;;;;10.90;7.85;;;615.30;2432.00;;;;;;5093013;28;20377;-64
2023/08/04 04:51:36;;;;;;;12.68;8.13;;;640.00;2432.00;;;;;;5092134;28;20035;-63
2023/08/04 04:54:01;;;;;;;9.80;7.85;;;640.10;2432.00;;;;;;5092489;28;20027;-64
2023/08/04 04:56:27;;;;;;;9.30;7.63;;;640.40;2432.00;;;;;;5093079;28;20016;-63
2023/08/04 04:58:53;;;;;;;10.75;8.10;;;640.50;2432.00;;;;;;5093047;28;20023;-63
2023/08/04 05:01:19;;;;;;;11.27;8.10;;;;;;;;;;5093256;28;20129;-64
2023/08/04 05:03:44;;;;;;;9.88;8.00;;;640.50;2432.00;;;;;;5092255;28;20076;-63
2023/08/04 05:06:10;;;;;;;9.13;8.20;;;819.30;2252.80;;;;;;5092783;28;20111;-64
2023/08/04 05:08:36;;;;;;;9.63;8.65;;;870.70;1945.60;;;;;;5092492;28;20021;-64
2023/08/04 05:11:01;;;;;;;11.73;9.23;;;921.70;1792.00;;;;;;5091881;28;20028;-64
2023/08/04 05:13:28;;;;;;;10.52;8.45;;;947.50;1689.60;;;;;;5088433;28;20156;-63
2023/08/04 05:15:53;;;;;;;10.43;8.65;;;972.90;1638.40;;;;;;5092423;28;20027;-64
2023/08/04 05:18:19;;;;;;;11.07;9.00;;;973.30;1612.80;;;;;;5092664;28;20075;-63
2023/08/04 05:20:46;;;;;;;15.90;9.70;;;998.90;1536.00;;;;;;5092398;28;20460;-62
2023/08/04 05:23:12;;;;;;;12.65;10.00;;;1024.10;1510.40;;;;;;5092025;28;20024;-64
2023/08/04 05:25:39;;;;;;;10.75;8.65;;;1024.90;1459.20;;;;;;5092533;28;20131;-63
2023/08/04 05:28:23;;;;;;;13.52;8.88;;;1049.90;1459.20;;;;;;5092236;28;20023;-63
2023/08/04 05:30:53;;;;;;;10.52;8.20;;;1050.50;1408.00;;;;;;5092488;28;20114;-63
2023/08/04 05:33:19;;;;;;;9.18;8.25;;;1050.50;1408.00;;;;;;5092596;28;20086;-63
2023/08/04 05:35:46;;;;;;;9.40;8.43;;;1075.70;1356.80;;;;;;5091925;28;20040;-63
2023/08/04 05:38:13;;;;;;;9.32;8.52;;;1100.90;1331.20;;;;;;5091737;28;20525;-63
2023/08/04 05:40:41;;;;;;;9.85;8.82;;;1101.00;1331.20;;;;;;5077906;28;20063;-62
2023/08/04 05:43:07;;;;;;;9.98;8.98;;;1126.40;1305.60;;;;;;5092160;28;20346;-63
2023/08/04 05:45:37;;;;;;;11.80;9.85;;;1126.50;1305.60;;;;;;5091929;28;20035;-64
2023/08/04 05:48:04;;;;;;;11.60;10.45;;;1152.20;1254.40;;;;;;5091770;28;20028;-63
2023/08/04 05:50:29;;;;;;;12.00;10.75;;;1177.80;1203.20;;;;;;5091487;28;20019;-63
2023/08/04 05:52:56;;;;;;;10.75;9.70;;;1177.70;1203.20;;;;;;5091368;28;20024;-63
2023/08/04 05:55:22;;;;;;;11.30;10.30;;;1178.00;1177.60;;;;;;5091592;28;20377;-64
2023/08/04 05:57:47;;;;;;;13.70;11.68;;;1203.30;1177.60;;;;;;5088003;28;20020;-65
2023/08/04 06:00:13;;;;;;;12.98;11.57;;;1203.30;1177.60;;;;;;5070148;28;20032;-62
2023/08/04 06:02:41;;;;;;;12.02;10.93;;;1203.30;1152.00;;;;;;5070011;28;20090;-64
2023/08/04 06:05:07;;;;;;;13.07;11.98;;;1229.00;1126.40;;;;;;5071268;28;20389;-63
2023/08/04 06:07:33;;;;;;;12.23;11.02;;;1229.40;1126.40;;;;;;5071224;28;20021;-63
2023/08/04 06:09:58;;;;;;;13.57;12.48;;;1254.80;1100.80;;;;;;5071797;28;20115;-64
2023/08/04 06:12:24;;;;;;;13.73;11.50;;;1254.80;1100.80;;;;;;5070743;28;20056;-63
2023/08/04 06:14:50;;;;;;;13.95;12.65;;;1254.80;1100.80;;;;;;5071463;28;20029;-63
2023/08/04 06:17:15;;;;;;;14.20;12.77;;;1255.00;1100.80;;;;;;5082069;28;20032;-63
2023/08/04 06:19:43;;;;;;;14.95;13.48;;;1280.50;1075.20;;;;;;5091390;28;20016;-63
2023/08/04 06:22:09;;;;;;;13.55;12.38;;;1280.00;1075.20;;;;;;5090716;28;20050;-61
2023/08/04 06:24:35;;;;;;;14.57;13.05;;;1254.50;1100.80;;;;;;5090586;28;20576;-61
2023/08/04 06:27:02;;;;;;;15.32;13.93;;;1255.30;1075.20;;;;;;5090956;28;20099;-61
2023/08/04 06:29:28;;;;;;;19.02;14.70;;;1280.50;1049.60;;;;;;5091131;28;20028;-60
2023/08/04 06:31:54;;;;;;;16.17;14.77;;;1280.20;1075.20;;;;;;5090715;28;20031;-61
2023/08/04 06:34:19;;;;;;;16.23;14.35;;;1280.70;1049.60;;;;;;5088292;28;20102;-61
2023/08/04 06:36:46;;;;;;;17.15;15.52;;;1280.50;1049.60;;;;;;5071020;28;20401;-60
2023/08/04 06:39:11;;;;;;;16.05;14.73;;;1280.70;1024.00;;;;;;5091022;28;20108;-60
2023/08/04 06:41:37;;;;;;;24.60;16.77;;;1306.50;998.40;;;;;;5090512;28;20493;-61
2023/08/04 06:44:03;;;;;;;17.35;15.90;;;1331.60;1024.00;;;;;;5090637;28;20035;-63
2023/08/04 06:46:29;;;;;;;17.50;16.17;;;1356.80;1024.00;;;;;;5090821;28;20028;-59
2023/08/04 06:48:54;;;;;;;18.27;16.88;;;1332.10;972.80;;;;;;5090858;28;20111;-63
2023/08/04 06:51:20;;;;;;;17.70;16.30;;;1331.90;998.40;;;;;;5090630;28;20373;-62
2023/08/04 06:53:45;;;;;;;18.48;17.10;;;1356.90;998.40;;;;;;5090538;28;20020;-65
2023/08/04 06:56:11;;;;;;;18.67;17.20;;;1356.90;998.40;;;;;;5090417;28;20012;-66
2023/08/04 06:58:37;;;;;;;17.17;15.98;;;1357.10;998.40;;;;;;5090073;28;20066;-65
2023/08/04 07:01:02;;;;;;;18.63;17.15;;;1356.80;972.80;;;;;;5076676;28;20214;-64
2023/08/04 07:03:28;;;;;;;19.25;17.42;;;1357.10;998.40;;;;;;5084510;28;20490;-62
2023/08/04 07:05:54;;;;;;;19.33;17.85;;;1357.70;972.80;;;;;;5082444;28;20492;-65
2023/08/04 07:08:19;;;;;;;20.17;18.58;;;1356.80;998.40;;;;;;5090287;28;20027;-63
2023/08/04 07:10:45;;;;;;;17.40;16.30;;;1356.90;998.40;;;;;;5076588;28;20390;-65
2023/08/04 07:13:11;;;;;;;18.42;16.58;;;1356.90;972.80;;;;;;5089943;28;20031;-66
2023/08/04 07:15:37;;;;;;;18.33;16.77;;;1332.10;972.80;;;;;;5090340;28;20047;-62
2023/08/04 07:18:03;;;;;;;19.95;18.30;;;1356.80;998.40;;;;;;5090545;28;20024;-62
2023/08/04 07:20:29;;;;;;;18.80;17.20;;;1306.20;972.80;;;;;;5090525;28;20019;-62
2023/08/04 07:22:55;;;;;;;18.17;16.35;;;1280.40;1049.60;;;;;;5090576;28;20072;-67
2023/08/04 07:25:20;;;;;;;16.15;15.05;;;1254.60;1075.20;;;;;;5090185;28;20035;-62
2023/08/04 07:27:46;;;;;;;17.02;15.73;;;1255.00;1049.60;;;;;;5089749;28;20027;-62
2023/08/04 07:30:13;;;;;;;18.77;17.48;;;1306.20;998.40;;;;;;5089874;28;20065;-64
2023/08/04 07:32:39;;;;;;;18.23;16.77;;;1331.20;1024.00;;;;;;5090127;28;20032;-64
2023/08/04 07:35:05;;;;;;;16.85;15.45;;;1356.80;998.40;;;;;;5089668;28;20461;-62
2023/08/04 07:37:31;;;;;;;19.55;18.15;;;1331.90;998.40;;;;;;5090228;28;20032;-62
2023/08/04 07:39:57;;;;;;;18.17;16.55;;;1331.60;972.80;;;;;;5089723;28;20012;-67
2023/08/04 07:42:23;;;;;;;18.95;17.33;;;1331.60;972.80;;;;;;5089542;28;20487;-61
2023/08/04 07:44:49;;;;;;;17.55;15.85;;;1306.20;972.80;;;;;;5089635;28;20036;-62
2023/08/04 07:47:15;;;;;;;17.77;16.45;;;1331.60;998.40;;;;;;5089926;28;20035;-62
2023/08/04 07:49:40;;;;;;;19.15;17.70;;;1306.50;972.80;;;;;;5089821;28;20020;-62
2023/08/04 07:52:06;;;;;;;19.13;17.52;;;1280.70;1024.00;;;;;;5089626;28;20028;-62
2023/08/04 07:54:33;;;;;;;19.88;17.90;;;1305.70;998.40;;;;;;5089529;28;20031;-63
2023/08/04 07:57:01;;;;;;;18.08;16.45;;;1280.70;1024.00;;;;;;5089546;28;20101;-62
2023/08/04 07:59:26;;;;;;;17.67;16.48;;;1305.60;998.40;;;;;;5089660;28;20020;-62
2023/08/04 08:01:52;;;;;;;17.65;16.23;;;1305.70;998.40;;;;;;5089356;28;20016;-62
2023/08/04 08:04:18;;;;;;;19.02;17.25;;;1331.60;972.80;;;;;;5089511;28;20064;-62
2023/08/04 08:06:43;;;;;;;17.15;15.63;;;1306.00;972.80;;;;;;5089813;28;20481;-62
2023/08/04 08:09:11;;;;;;;17.42;15.93;;;1306.20;972.80;;;;;;5089500;28;20024;-62
2023/08/04 08:11:37;;;;;;;18.05;16.42;;;1332.10;972.80;;;;;;5089201;28;20032;-62
2023/08/04 08:14:03;;;;;;;19.90;17.30;;;1331.40;972.80;;;;;;5088600;28;20024;-62
2023/08/04 08:16:29;;;;;;;18.40;16.58;;;1331.20;972.80;;;;;;5089376;28;20643;-62
2023/08/04 08:18:54;;;;;;;16.98;15.90;;;1280.50;1024.00;;;;;;5089389;28;20110;-65
2023/08/04 08:21:20;;;;;;;22.65;15.80;;;1280.90;998.40;;;;;;5089115;28;20055;-66
2023/08/04 08:23:46;;;;;;;16.48;14.88;;;1280.90;998.40;;;;;;5088956;28;20028;-62
2023/08/04 08:26:12;;;;;;;17.98;15.23;;;1254.80;1075.20;;;;;;5089006;28;20028;-62
2023/08/04 08:28:37;;;;;;;17.45;15.55;;;1280.40;1024.00;;;;;;5089499;28;20020;-62
2023/08/04 08:31:03;;;;;;;23.25;15.63;;;1255.30;1049.60;;;;;;5089371;28;20523;-62
2023/08/04 08:33:29;;;;;;;15.88;14.43;;;1203.90;1049.60;;;;;;5089403;28;20416;-62
2023/08/04 08:35:55;;;;;;;15.20;13.25;;;1152.40;1100.80;;;;;;5089439;28;20032;-62
2023/08/04 08:38:21;;;;;;;15.77;10.45;;;1100.80;1228.80;;;;;;5089302;28;20069;-65
2023/08/04 08:40:51;;;;;;;11.27;8.93;;;1050.30;1228.80;;;;;;5088892;28;20039;-62
2023/08/04 08:43:16;;;;;;;13.13;10.02;;;1049.60;1280.00;;;;;;5088622;28;20031;-62
2023/08/04 08:45:44;;;;;;;15.27;10.05;;;1024.90;1254.40;;;;;;5089001;28;20032;-62
2023/08/04 08:48:11;;;;;;;11.48;9.55;;;1024.00;1280.00;;;;;;5088971;28;20020;-62
2023/08/04 08:50:39;;;;;;;9.07;8.05;;;973.70;1305.60;;;;;;5088776;28;20462;-62
2023/08/04 08:53:20;;;;;;;11.45;8.93;;;973.70;1305.60;;;;;;5089175;28;20017;-61
2023/08/04 08:55:47;;;;;;;8.75;7.68;;;973.40;1305.60;;;;;;5088794;28;20058;-65
2023/08/04 08:58:14;;;;;;;9.50;8.55;;;973.20;1305.60;;;;;;5088668;28;20027;-61
2023/08/04 09:00:39;;;;;;;8.95;7.30;;;973.10;1305.60;;;;;;5089045;28;20028;-61
2023/08/04 09:03:05;;;;;;;9.05;7.30;;;973.10;1331.20;;;;;;5088731;28;20020;-62
2023/08/04 09:05:32;;;;;;;10.10;7.75;;;972.80;1280.00;;;;;;5088882;28;20068;-64
2023/08/04 09:07:57;;;;;;;11.15;7.63;;;948.00;1280.00;;;;;;5088846;28;20031;-62
2023/08/04 09:10:23;;;;;;;9.88;8.65;;;948.00;1305.60;;;;;;5088453;28;20032;-62
2023/08/04 09:12:51;;;;;;;11.45;8.77;;;973.10;1331.20;;;;;;5088809;28;20035;-61
2023/08/04 09:15:17;;;;;;;9.90;8.90;;;973.10;1305.60;;;;;;5088620;28;20107;-62
2023/08/04 09:17:44;;;;;;;10.57;9.02;;;973.00;1331.20;;;;;;5088872;28;20497;-62
2023/08/04 09:20:26;;;;;;;10.73;9.52;;;947.90;1305.60;;;;;;5088634;28;20063;-63
2023/08/04 09:22:52;;;;;;;9.82;8.88;;;947.50;1331.20;;;;;;5088750;28;20024;-61
2023/08/04 09:25:17;;;;;;;11.93;9.45;;;947.90;1356.80;;;;;;5088797;28;20036;-61
2023/08/04 09:27:43;;;;;;;13.35;9.15;;;947.80;1356.80;;;;;;5092251;28;20024;-62
2023/08/04 09:30:10;;;;;;;11.18;8.52;;;947.80;1356.80;;;;;;5092534;28;20538;-62
2023/08/04 09:32:47;;;;;;;11.05;9.60;;;947.80;1356.80;;;;;;5092433;28;20031;-61
2023/08/04 09:35:14;;;;;;;9.68;8.80;;;947.90;1382.40;;;;;;5092406;28;20020;-62
2023/08/04 09:37:40;;;;;;;11.20;10.15;;;947.70;1356.80;;;;;;5092484;28;20032;-66
2023/08/04 09:40:19;;;;;;;11.63;10.27;;;947.70;1331.20;;;;;;5092267;28;20016;-61
2023/08/04 09:42:47;;;;;;;14.52;9.93;;;947.90;1356.80;;;;;;5091620;28;20478;-61
2023/08/04 09:45:16;;;;;;;14.07;10.00;;;922.50;1433.60;;;;;;5091767;28;20504;-62
2023/08/04 09:47:50;;;;;;;10.52;9.60;;;947.40;1408.00;;;;;;5092420;28;20610;-61
2023/08/04 09:50:17;;;;;;;16.83;11.32;;;947.70;1382.40;;;;;;5092249;28;20032;-61
2023/08/04 09:52:44;;;;;;;11.55;9.82;;;947.70;1433.60;;;;;;5092251;28;20051;-62
2023/08/04 09:55:10;;;;;;;13.93;12.52;;;947.20;1433.60;;;;;;5092457;28;20048;-63
2023/08/04 09:57:37;;;;;;;13.35;12.15;;;922.10;1408.00;;;;;;5092216;28;20077;-62
2023/08/04 10:00:04;;;;;;;14.00;12.75;;;922.30;1408.00;;;;;;5092088;28;20026;-62
2023/08/04 10:02:30;;;;;;;13.05;11.93;;;921.90;1433.60;;;;;;5091919;28;20103;-62
2023/08/04 10:04:58;;;;;;;14.20;12.93;;;922.40;1433.60;;;;;;5091745;28;20047;-62
2023/08/04 10:07:24;;;;;;;12.73;11.48;;;922.30;1408.00;;;;;;5092154;28;20020;-62
2023/08/04 10:09:50;;;;;;;13.10;11.07;;;922.00;1459.20;;;;;;5085010;28;20055;-61
2023/08/04 10:12:17;;;;;;;13.80;11.88;;;922.10;1484.80;;;;;;5071444;28;20063;-61
2023/08/04 10:14:43;;;;;;;12.77;11.38;;;922.00;1484.80;;;;;;5071249;28;20055;-62
2023/08/04 10:17:09;;;;;;;12.05;10.80;;;921.80;1484.80;;;;;;5071531;28;20017;-61
2023/08/04 10:19:35;;;;;;;16.42;11.50;;;921.90;1510.40;;;;;;5071466;28;20025;-61
2023/08/04 10:22:07;;;;;;;12.35;10.75;;;921.90;1510.40;;;;;;5071716;28;20522;-61
2023/08/04 10:24:40;;;;;;;15.05;12.30;;;921.70;1510.40;;;;;;5071412;28;20475;-61
2023/08/04 10:27:21;;;;;;;12.40;10.95;;;921.80;1510.40;;;;;;5071222;28;20040;-65
2023/08/04 10:30:13;;;;;;;12.48;11.38;;;922.00;1484.80;;;;;;5071208;28;20025;-61
2023/08/04 10:32:39;;;;;;;13.63;10.68;;;922.00;1459.20;;;;;;5072417;28;20032;-62
2023/08/04 10:35:23;;;;;;;12.48;11.27;;;922.00;1484.80;;;;;;5071379;28;20024;-61
2023/08/04 10:37:51;;;;;;;15.15;11.77;;;921.80;1510.40;;;;;;5070161;28;20024;-61
2023/08/04 10:40:30;;;;;;;13.70;12.48;;;921.60;1484.80;;;;;;5070910;28;20049;-61
2023/08/04 10:43:06;;;;;;;15.10;13.05;;;921.60;1484.80;;;;;;5071171;28;20044;-61
2023/08/04 10:45:52;;;;;;;16.00;12.25;;;896.90;1459.20;;;;;;5071074;28;20060;-61
2023/08/04 10:48:21;;;;;;;14.10;12.63;;;921.70;1484.80;;;;;;5071170;28;20028;-61
2023/08/04 10:50:49;;;;;;;12.98;11.63;;;921.60;1484.80;;;;;;5070823;28;20064;-61
2023/08/04 10:53:15;;;;;;;12.70;11.43;;;921.60;1459.20;;;;;;5070158;28;20517;-64
2023/08/04 10:55:54;;;;;;;13.77;12.35;;;896.90;1433.60;;;;;;5071356;28;20035;-61
2023/08/04 10:58:21;;;;;;;13.68;12.38;;;896.90;1484.80;;;;;;5070717;28;20064;-61
2023/08/04 11:00:47;;;;;;;14.70;13.15;;;896.70;1484.80;;;;;;5070775;28;20055;-61
2023/08/04 11:03:27;;;;;;;13.27;12.02;;;896.60;1510.40;;;;;;5070463;28;20387;-61
2023/08/04 11:05:53;;;;;;;11.82;10.50;;;896.70;1510.40;;;;;;5070465;28;20031;-61
2023/08/04 11:08:20;;;;;;;14.60;11.20;;;896.50;1510.40;;;;;;5070685;28;20039;-61
2023/08/04 11:10:50;;;;;;;11.90;10.15;;;896.90;1510.40;;;;;;5070384;28;20031;-61
2023/08/04 11:13:18;;;;;;;12.13;10.95;;;896.90;1484.80;;;;;;5070229;28;20563;-63
2023/08/04 11:15:45;;;;;;;11.43;10.23;;;921.60;1510.40;;;;;;5070360;28;20024;-61
2023/08/04 11:18:13;;;;;;;12.32;11.02;;;921.60;1536.00;;;;;;5070248;28;20425;-61
2023/08/04 11:20:39;;;;;;;13.90;9.75;;;921.60;1561.60;;;;;;5070672;28;20092;-61
2023/08/04 11:23:07;;;;;;;12.73;9.65;;;921.70;1510.40;;;;;;5069695;28;20040;-62
2023/08/04 11:25:35;;;;;;;9.80;8.90;;;896.90;1510.40;;;;;;5071349;28;20123;-61
2023/08/04 11:28:02;;;;;;;12.18;10.68;;;896.90;1484.80;;;;;;5070097;28;20066;-62
2023/08/04 11:30:28;;;;;;;11.90;10.70;;;896.90;1484.80;;;;;;5070197;28;20470;-61
2023/08/04 11:32:53;;;;;;;10.80;9.68;;;896.80;1484.80;;;;;;5069963;28;20029;-61
2023/08/04 11:35:19;;;;;;;10.25;9.27;;;896.70;1484.80;;;;;;5070064;28;20401;-61
2023/08/04 11:37:45;;;;;;;10.35;9.43;;;896.80;1510.40;;;;;;5069829;28;20048;-61
2023/08/04 11:40:21;;;;;;;11.30;10.20;;;896.80;1510.40;;;;;;5069866;28;20060;-61
2023/08/04 11:42:48;;;;;;;10.43;9.43;;;896.90;1510.40;;;;;;5069732;28;20020;-61
2023/08/04 11:45:14;;;;;;;13.07;10.20;;;896.40;1510.40;;;;;;5069639;28;20478;-62
2023/08/04 11:47:40;;;;;;;10.80;9.88;;;896.40;1510.40;;;;;;5069717;28;20493;-61
2023/08/04 11:50:07;;;;;;;15.90;8.98;;;896.90;1510.40;;;;;;5069842;28;20024;-60
2023/08/04 11:52:37;;;;;;;12.98;10.15;;;896.90;1536.00;;;;;;5069978;28;20039;-61
2023/08/04 11:55:04;;;;;;;11.55;10.25;;;896.50;1536.00;;;;;;5069897;28;20081;-61
2023/08/04 11:57:30;;;;;;;12.00;10.10;;;896.40;1561.60;;;;;;5069716;28;20036;-61
2023/08/04 11:59:57;;;;;;;11.52;9.70;;;896.40;1536.00;;;;;;5069516;28;20027;-61
2023/08/04 12:02:23;;;;;;;11.40;10.07;;;896.70;1536.00;;;;;;5069425;28;20032;-61
2023/08/04 12:05:11;;;;;;;12.30;10.63;;;896.50;1561.60;;;;;;5069700;28;20033;-60